Time;durP1;ratioP1;P1;durP2;ratioP2;P2;SDS_P1;SDS_P2;PMS_P1;PMS_P2;Temp;Humidity;BMP_temperature;BMP_pressure;BME280_temperature;BME280_humidity;BME280_pressure;Samples;Min_cycle;Max_cycle;Signal;HPM_P1;HPM_P2
2023/12/20 00:01:49;;;;;;;12.73;2.05;;;6.10;99.90;;;;;;5040646;28;20487;-68
2023/12/20 00:04:15;;;;;;;5.28;0.77;;;6.10;99.90;;;;;;5054678;28;20044;-67
2023/12/20 00:06:41;;;;;;;9.80;1.35;;;6.00;99.90;;;;;;5040350;28;20048;-67
2023/12/20 00:09:06;;;;;;;6.63;0.77;;;6.00;99.90;;;;;;5051898;28;20120;-67
2023/12/20 00:11:32;;;;;;;6.75;1.00;;;5.90;99.90;;;;;;5061500;28;20487;-68
2023/12/20 00:13:58;;;;;;;7.95;0.77;;;5.90;99.90;;;;;;5058663;28;20041;-67
2023/12/20 00:16:23;;;;;;;7.68;0.80;;;5.90;99.90;;;;;;5058538;28;20036;-67
2023/12/20 00:18:49;;;;;;;2.08;0.50;;;5.80;99.90;;;;;;5047446;28;20060;-67
2023/12/20 00:21:15;;;;;;;7.93;1.00;;;5.80;99.90;;;;;;5038706;28;20041;-68
2023/12/20 00:23:40;;;;;;;6.65;1.20;;;5.80;99.90;;;;;;5042078;28;20041;-67
2023/12/20 00:26:06;;;;;;;10.55;1.60;;;5.80;99.90;;;;;;5055547;28;20117;-67
2023/12/20 00:28:32;;;;;;;14.63;1.15;;;5.70;99.90;;;;;;5053811;28;20040;-67
2023/12/20 00:30:58;;;;;;;17.08;1.17;;;5.70;99.90;;;;;;5055859;28;20119;-68
2023/12/20 00:33:23;;;;;;;5.47;1.27;;;5.70;99.90;;;;;;5059186;28;20102;-67
2023/12/20 00:35:49;;;;;;;6.63;1.02;;;5.70;99.90;;;;;;5051778;28;20648;-68
2023/12/20 00:38:15;;;;;;;10.02;1.35;;;5.70;99.90;;;;;;5077378;28;20135;-67
2023/12/20 00:40:41;;;;;;;8.20;1.90;;;5.70;99.90;;;;;;5058341;28;20114;-68
2023/12/20 00:43:06;;;;;;;6.60;1.33;;;5.70;99.90;;;;;;5059943;28;20052;-68
2023/12/20 00:45:32;;;;;;;3.47;0.43;;;5.70;99.90;;;;;;5057651;28;20056;-68
2023/12/20 00:47:59;;;;;;;10.57;1.55;;;5.60;99.90;;;;;;5059987;28;20083;-67
2023/12/20 00:50:25;;;;;;;9.90;1.35;;;5.70;99.90;;;;;;5059786;28;20086;-67
2023/12/20 00:52:50;;;;;;;5.50;0.88;;;5.70;99.90;;;;;;5059055;28;20049;-67
2023/12/20 00:55:16;;;;;;;13.27;1.67;;;5.70;99.90;;;;;;5047434;28;20186;-67
2023/12/20 00:57:42;;;;;;;14.00;1.40;;;5.70;99.90;;;;;;5054855;28;20079;-68
2023/12/20 01:00:10;;;;;;;11.35;1.58;;;5.70;99.90;;;;;;5060539;28;20115;-67
2023/12/20 01:02:36;;;;;;;14.32;1.67;;;5.70;99.90;;;;;;5056192;28;20088;-68
2023/12/20 01:05:02;;;;;;;5.25;0.68;;;5.70;99.90;;;;;;5059273;28;20132;-67
2023/12/20 01:07:28;;;;;;;8.68;1.50;;;5.70;99.90;;;;;;5059373;28;20037;-67
2023/12/20 01:09:55;;;;;;;3.75;1.10;;;5.80;99.90;;;;;;5059523;28;20070;-68
2023/12/20 01:12:20;;;;;;;3.97;0.88;;;5.80;99.90;;;;;;5060357;28;20429;-67
2023/12/20 01:14:46;;;;;;;13.85;1.77;;;5.90;99.90;;;;;;5055769;28;20422;-68
2023/12/20 01:17:12;;;;;;;5.15;0.90;;;5.90;99.90;;;;;;5046956;28;20047;-68
2023/12/20 01:19:38;;;;;;;2.85;0.88;;;5.90;99.90;;;;;;5041191;28;20049;-67
2023/12/20 01:22:04;;;;;;;6.10;1.10;;;5.90;99.90;;;;;;5055173;28;20131;-67
2023/12/20 01:24:29;;;;;;;7.07;1.27;;;6.00;99.90;;;;;;5035124;28;20343;-67
2023/12/20 01:26:55;;;;;;;2.50;0.70;;;6.00;99.90;;;;;;5059926;28;20492;-67
2023/12/20 01:29:21;;;;;;;11.27;1.08;;;6.00;99.90;;;;;;5049917;28;20064;-67
2023/12/20 01:31:46;;;;;;;6.95;0.98;;;6.00;99.90;;;;;;5054038;28;20041;-67
2023/12/20 01:34:12;;;;;;;10.45;0.90;;;6.00;99.90;;;;;;5060565;28;20036;-67
2023/12/20 01:36:38;;;;;;;2.72;0.68;;;6.00;99.90;;;;;;5053567;28;20474;-67
2023/12/20 01:39:04;;;;;;;5.22;1.05;;;6.00;99.90;;;;;;5047338;28;20083;-67
2023/12/20 01:41:29;;;;;;;7.63;0.90;;;6.00;99.90;;;;;;5052141;28;20040;-67
2023/12/20 01:43:55;;;;;;;16.42;1.58;;;6.00;99.90;;;;;;5086143;28;20131;-67
2023/12/20 01:46:21;;;;;;;3.60;1.38;;;6.00;99.90;;;;;;5057784;28;20057;-67
2023/12/20 01:48:48;;;;;;;2.90;0.55;;;6.00;99.90;;;;;;5045118;28;20049;-67
2023/12/20 01:51:14;;;;;;;6.32;0.82;;;6.00;99.90;;;;;;5056761;28;20048;-67
2023/12/20 01:53:41;;;;;;;1.20;0.45;;;6.00;99.90;;;;;;5048065;28;20056;-67
2023/12/20 01:56:07;;;;;;;3.75;0.52;;;6.00;99.90;;;;;;5053422;28;20044;-67
2023/12/20 01:58:34;;;;;;;5.88;0.80;;;6.00;99.90;;;;;;5042262;28;20068;-67
2023/12/20 02:00:59;;;;;;;0.35;0.20;;;6.10;99.90;;;;;;5051452;28;20047;-68
2023/12/20 02:03:25;;;;;;;0.77;0.43;;;6.10;99.90;;;;;;5060692;28;20414;-67
2023/12/20 02:05:51;;;;;;;2.10;0.57;;;6.20;99.90;;;;;;5034525;28;20603;-67
2023/12/20 02:08:17;;;;;;;2.17;0.35;;;6.20;99.90;;;;;;5059152;28;20511;-67
2023/12/20 02:10:43;;;;;;;2.97;0.85;;;6.10;99.90;;;;;;5051244;28;20057;-67
2023/12/20 02:13:09;;;;;;;11.32;1.45;;;6.10;99.90;;;;;;5035157;28;20064;-67
2023/12/20 02:15:37;;;;;;;17.48;1.30;;;6.00;99.90;;;;;;5045511;28;20041;-67
2023/12/20 02:18:03;;;;;;;8.18;0.80;;;6.00;99.90;;;;;;5081588;28;20354;-67
2023/12/20 02:20:29;;;;;;;6.32;1.25;;;6.00;99.90;;;;;;5041927;28;20053;-67
2023/12/20 02:22:54;;;;;;;1.52;0.52;;;6.00;99.90;;;;;;5061583;28;20048;-67
2023/12/20 02:25:20;;;;;;;7.47;1.05;;;6.00;99.90;;;;;;5061914;28;20045;-68
2023/12/20 02:27:46;;;;;;;7.82;1.73;;;6.00;99.90;;;;;;5049009;28;20053;-68
2023/12/20 02:30:12;;;;;;;9.38;1.42;;;6.00;99.90;;;;;;5056684;28;20056;-67
2023/12/20 02:32:38;;;;;;;9.52;2.00;;;6.00;99.90;;;;;;5060311;28;20048;-67
2023/12/20 02:35:04;;;;;;;6.07;1.23;;;6.00;99.90;;;;;;5062696;28;20094;-68
2023/12/20 02:37:30;;;;;;;29.38;2.20;;;6.00;99.90;;;;;;5061663;28;20041;-67
2023/12/20 02:39:55;;;;;;;8.73;1.42;;;6.00;99.90;;;;;;5056349;28;20461;-68
2023/12/20 02:42:21;;;;;;;6.90;1.02;;;6.00;99.90;;;;;;5055999;28;20057;-68
2023/12/20 02:44:47;;;;;;;11.45;1.30;;;6.00;99.90;;;;;;5045462;28;20107;-67
2023/12/20 02:47:12;;;;;;;4.18;0.57;;;6.00;99.90;;;;;;5057175;28;20041;-69
2023/12/20 02:49:38;;;;;;;5.93;1.13;;;6.10;99.90;;;;;;5026053;28;20158;-67
2023/12/20 02:52:04;;;;;;;2.20;0.77;;;6.10;99.90;;;;;;5062604;28;20174;-67
2023/12/20 02:54:30;;;;;;;0.40;0.30;;;6.10;99.90;;;;;;5062146;28;20105;-68
2023/12/20 02:56:55;;;;;;;22.75;2.63;;;6.20;99.90;;;;;;5061238;28;20121;-68
2023/12/20 02:59:21;;;;;;;1.35;0.93;;;6.20;99.90;;;;;;5059784;28;20060;-68
2023/12/20 03:01:47;;;;;;;5.18;0.98;;;6.20;99.90;;;;;;5053262;28;20131;-68
2023/12/20 03:04:13;;;;;;;4.20;0.75;;;6.20;99.90;;;;;;5060787;28;20044;-67
2023/12/20 03:06:38;;;;;;;7.50;1.23;;;6.30;99.90;;;;;;5060299;28;20127;-67
2023/12/20 03:09:04;;;;;;;5.90;1.15;;;6.30;99.90;;;;;;5045292;28;20036;-68
2023/12/20 03:11:30;;;;;;;3.40;0.77;;;6.30;99.90;;;;;;5060066;28;20052;-68
2023/12/20 03:13:57;;;;;;;16.70;1.98;;;6.30;99.90;;;;;;5060922;28;20565;-67
2023/12/20 03:16:23;;;;;;;7.82;1.25;;;6.30;99.90;;;;;;5047373;28;20147;-67
2023/12/20 03:18:49;;;;;;;19.85;1.67;;;6.30;99.90;;;;;;5057612;28;20065;-67
2023/12/20 03:21:15;;;;;;;20.77;2.30;;;6.30;99.90;;;;;;5041241;28;20557;-67
2023/12/20 03:23:41;;;;;;;10.70;2.03;;;6.30;99.90;;;;;;5044239;28;20048;-67
2023/12/20 03:26:07;;;;;;;16.33;2.10;;;6.30;99.90;;;;;;5060252;28;20052;-67
2023/12/20 03:28:33;;;;;;;10.82;1.35;;;6.20;99.90;;;;;;5093699;28;20048;-68
2023/12/20 03:30:59;;;;;;;8.65;1.33;;;6.10;99.90;;;;;;5061840;28;20117;-67
2023/12/20 03:33:25;;;;;;;15.77;1.23;;;6.10;99.90;;;;;;5060554;28;20562;-67
2023/12/20 03:35:50;;;;;;;4.35;1.38;;;6.00;99.90;;;;;;5054595;28;20170;-67
2023/12/20 03:38:16;;;;;;;13.07;1.48;;;6.00;99.90;;;;;;5060399;28;20071;-67
2023/12/20 03:40:42;;;;;;;1.73;0.55;;;6.00;99.90;;;;;;5060078;28;20063;-66
2023/12/20 03:43:08;;;;;;;3.05;0.55;;;6.10;99.90;;;;;;5055486;28;20032;-66
2023/12/20 03:45:33;;;;;;;12.88;2.10;;;6.20;99.90;;;;;;5048264;28;20071;-67
2023/12/20 03:47:59;;;;;;;20.58;2.17;;;6.30;99.90;;;;;;5054061;28;20049;-67
2023/12/20 03:50:26;;;;;;;5.43;1.30;;;6.30;99.90;;;;;;5029711;28;20436;-67
2023/12/20 03:52:52;;;;;;;12.98;2.17;;;6.30;99.90;;;;;;5057299;28;20044;-67
2023/12/20 03:55:18;;;;;;;9.00;1.48;;;6.30;99.90;;;;;;5058392;28;20056;-67
2023/12/20 03:57:45;;;;;;;1.83;0.43;;;6.30;99.90;;;;;;5041017;28;20068;-67
2023/12/20 04:00:11;;;;;;;0.47;0.30;;;6.30;99.90;;;;;;5027567;28;20808;-68
2023/12/20 04:02:41;;;;;;;2.25;0.70;;;6.30;99.90;;;;;;5057831;28;20128;-67
2023/12/20 04:05:08;;;;;;;12.60;2.10;;;6.30;99.90;;;;;;5045844;28;20141;-67
2023/12/20 04:07:34;;;;;;;7.65;0.88;;;6.30;99.90;;;;;;5058561;28;20131;-67
2023/12/20 04:10:00;;;;;;;2.63;0.32;;;6.30;99.90;;;;;;5058953;28;20106;-67
2023/12/20 04:12:28;;;;;;;7.10;1.10;;;6.30;99.90;;;;;;5058057;28;20403;-68
2023/12/20 04:14:53;;;;;;;1.77;0.70;;;6.30;99.90;;;;;;5058833;28;20435;-67
2023/12/20 04:17:22;;;;;;;0.88;0.52;;;6.20;99.90;;;;;;5059236;28;20048;-66
2023/12/20 04:19:48;;;;;;;2.33;0.73;;;6.30;99.90;;;;;;5058993;28;20503;-67
2023/12/20 04:22:14;;;;;;;5.22;1.52;;;6.20;99.90;;;;;;5059404;28;20153;-67
2023/12/20 04:24:42;;;;;;;1.75;0.38;;;6.30;99.90;;;;;;5057819;28;20489;-67
2023/12/20 04:27:08;;;;;;;2.72;0.93;;;6.30;99.90;;;;;;5058638;28;20191;-67
2023/12/20 04:29:34;;;;;;;0.10;0.10;;;6.30;99.90;;;;;;5056256;28;20660;-67
2023/12/20 04:32:00;;;;;;;13.15;1.75;;;6.30;99.90;;;;;;5050733;28;20049;-67
2023/12/20 04:34:26;;;;;;;7.20;1.30;;;6.40;99.90;;;;;;5059598;28;20044;-67
2023/12/20 04:36:53;;;;;;;3.42;1.02;;;6.40;99.90;;;;;;5036984;28;20124;-66
2023/12/20 04:39:18;;;;;;;5.88;0.95;;;6.40;99.90;;;;;;5047541;28;20064;-67
2023/12/20 04:41:44;;;;;;;6.35;0.88;;;6.40;99.90;;;;;;5081747;28;20465;-67
2023/12/20 04:44:10;;;;;;;3.60;0.95;;;6.40;99.90;;;;;;5053029;28;20171;-67
2023/12/20 04:46:36;;;;;;;7.50;1.02;;;6.50;99.90;;;;;;5060448;28;20639;-67
2023/12/20 04:49:02;;;;;;;8.45;1.88;;;6.60;99.90;;;;;;5054339;28;20044;-67
2023/12/20 04:51:27;;;;;;;7.03;1.48;;;6.60;99.90;;;;;;5059011;28;20561;-67
2023/12/20 04:53:53;;;;;;;13.48;2.15;;;6.60;99.90;;;;;;5059419;28;20052;-67
2023/12/20 04:56:19;;;;;;;16.98;2.70;;;6.60;99.90;;;;;;5041490;28;20616;-67
2023/12/20 04:58:45;;;;;;;11.82;1.08;;;6.60;99.90;;;;;;5058579;28;20097;-67
2023/12/20 05:01:11;;;;;;;9.02;1.75;;;6.50;99.90;;;;;;5050757;28;20041;-67
2023/12/20 05:03:37;;;;;;;16.92;2.47;;;6.50;99.90;;;;;;5057021;28;20440;-67
2023/12/20 05:06:03;;;;;;;14.52;2.03;;;6.50;99.90;;;;;;5050350;28;20482;-67
2023/12/20 05:08:29;;;;;;;9.20;1.98;;;6.50;99.90;;;;;;5058660;28;20044;-67
2023/12/20 05:10:55;;;;;;;1.25;0.80;;;6.60;99.90;;;;;;5076528;28;20109;-68
2023/12/20 05:13:21;;;;;;;1.35;0.65;;;6.50;99.90;;;;;;5057983;28;20048;-67
2023/12/20 05:15:47;;;;;;;1.15;0.70;;;6.60;99.90;;;;;;5051411;28;20053;-67
2023/12/20 05:18:13;;;;;;;1.23;0.40;;;6.60;99.90;;;;;;5051678;28;20368;-67
2023/12/20 05:20:39;;;;;;;1.90;0.45;;;6.70;99.90;;;;;;5059409;28;20723;-67
2023/12/20 05:23:05;;;;;;;1.88;0.40;;;6.70;99.90;;;;;;5058130;28;20066;-67
2023/12/20 05:25:31;;;;;;;15.30;1.88;;;6.70;99.90;;;;;;5049376;28;20442;-67
2023/12/20 05:27:57;;;;;;;11.20;2.25;;;6.90;99.90;;;;;;5041069;28;20055;-67
2023/12/20 05:30:23;;;;;;;7.70;1.00;;;6.90;99.90;;;;;;5051336;28;20048;-67
2023/12/20 05:32:48;;;;;;;5.57;0.43;;;7.00;99.90;;;;;;5058000;28;20059;-67
2023/12/20 05:35:15;;;;;;;0.73;0.15;;;7.00;99.90;;;;;;5031477;28;20155;-67
2023/12/20 05:37:41;;;;;;;13.15;2.10;;;7.00;99.90;;;;;;5056552;28;20041;-67
2023/12/20 05:40:10;;;;;;;4.63;1.13;;;7.10;99.90;;;;;;5063047;28;20045;-67
2023/12/20 05:42:36;;;;;;;2.05;1.25;;;7.10;99.90;;;;;;5061674;28;20048;-67
2023/12/20 05:45:02;;;;;;;6.10;1.02;;;7.20;99.90;;;;;;5054012;28;20087;-67
2023/12/20 05:47:28;;;;;;;4.63;0.95;;;7.10;99.90;;;;;;5045164;28;20491;-67
2023/12/20 05:49:54;;;;;;;3.20;0.63;;;7.20;99.90;;;;;;5062993;28;20094;-67
2023/12/20 05:52:20;;;;;;;0.32;0.32;;;7.20;99.90;;;;;;5050440;28;20565;-67
2023/12/20 05:54:45;;;;;;;0.20;0.20;;;7.20;99.90;;;;;;5062043;28;20558;-67
2023/12/20 05:57:11;;;;;;;14.57;1.63;;;7.20;99.90;;;;;;5062801;28;20083;-67
2023/12/20 05:59:36;;;;;;;0.30;0.20;;;7.20;99.90;;;;;;5082368;28;20051;-67
2023/12/20 06:02:04;;;;;;;13.77;1.80;;;7.20;99.90;;;;;;5059523;28;20043;-67
2023/12/20 06:04:30;;;;;;;5.68;1.23;;;7.20;99.90;;;;;;5052939;28;20045;-67
2023/12/20 06:06:56;;;;;;;8.52;1.75;;;7.20;99.90;;;;;;5059507;28;20102;-67
2023/12/20 06:09:21;;;;;;;21.52;2.53;;;7.30;99.90;;;;;;5063013;28;20077;-67
2023/12/20 06:11:47;;;;;;;17.58;2.72;;;7.20;99.90;;;;;;5063042;28;20041;-67
2023/12/20 06:14:13;;;;;;;7.47;1.45;;;7.20;99.90;;;;;;5060779;28;20051;-67
2023/12/20 06:16:39;;;;;;;7.78;1.48;;;7.20;99.90;;;;;;5045017;28;20472;-67
2023/12/20 06:19:05;;;;;;;11.85;1.77;;;7.30;99.90;;;;;;5052998;28;20044;-67
2023/12/20 06:21:30;;;;;;;3.58;0.47;;;7.20;99.90;;;;;;5061359;28;20482;-67
2023/12/20 06:23:56;;;;;;;6.40;1.10;;;7.20;99.90;;;;;;5064406;28;20087;-67
2023/12/20 06:26:23;;;;;;;0.30;0.30;;;7.20;99.90;;;;;;5060969;28;20056;-67
2023/12/20 06:28:48;;;;;;;16.70;2.72;;;7.30;99.90;;;;;;5062770;28;20075;-67
2023/12/20 06:31:14;;;;;;;16.52;2.45;;;7.30;99.90;;;;;;5061684;28;20040;-66
2023/12/20 06:33:43;;;;;;;8.88;1.50;;;7.30;99.90;;;;;;5061569;28;20051;-67
2023/12/20 06:36:12;;;;;;;8.32;1.77;;;7.30;99.90;;;;;;5061727;28;20136;-67
2023/12/20 06:38:38;;;;;;;2.87;0.37;;;7.30;99.90;;;;;;5037251;28;20103;-67
2023/12/20 06:41:04;;;;;;;3.38;1.05;;;7.30;99.90;;;;;;5047807;28;20053;-67
2023/12/20 06:43:30;;;;;;;17.50;2.33;;;7.30;99.90;;;;;;5059591;28;20449;-67
2023/12/20 06:45:56;;;;;;;9.65;1.48;;;7.30;99.90;;;;;;5059496;28;20530;-67
2023/12/20 06:48:22;;;;;;;6.40;1.35;;;7.30;99.90;;;;;;5061705;28;20048;-67
2023/12/20 06:50:48;;;;;;;0.75;0.50;;;7.30;99.90;;;;;;5040737;28;20081;-67
2023/12/20 06:53:13;;;;;;;3.40;1.00;;;7.40;99.90;;;;;;5057905;28;20118;-67
2023/12/20 06:55:39;;;;;;;2.10;1.02;;;7.40;99.90;;;;;;5062550;28;20047;-67
2023/12/20 06:58:05;;;;;;;3.20;0.77;;;7.40;99.90;;;;;;5062188;28;20048;-67
2023/12/20 07:00:32;;;;;;;8.63;1.48;;;7.40;99.90;;;;;;5094027;28;20120;-67
2023/12/20 07:02:58;;;;;;;4.78;0.98;;;7.40;99.90;;;;;;5056035;28;20491;-67
2023/12/20 07:05:24;;;;;;;4.95;1.02;;;7.40;99.90;;;;;;5058015;28;20542;-66
2023/12/20 07:07:50;;;;;;;3.88;0.55;;;7.40;99.90;;;;;;5059614;28;20036;-67
2023/12/20 07:10:15;;;;;;;2.58;1.10;;;7.50;99.90;;;;;;5061667;28;20041;-67
2023/12/20 07:12:41;;;;;;;9.93;1.42;;;7.40;99.90;;;;;;5054272;28;20049;-67
2023/12/20 07:15:07;;;;;;;9.90;1.58;;;7.40;99.90;;;;;;5039599;28;20700;-67
2023/12/20 07:17:34;;;;;;;8.98;1.63;;;7.40;99.90;;;;;;5058078;28;20124;-66
2023/12/20 07:20:03;;;;;;;4.18;1.23;;;7.40;99.90;;;;;;5061312;28;20041;-67
2023/12/20 07:22:33;;;;;;;8.23;0.80;;;7.40;99.90;;;;;;5058541;28;20087;-67
2023/12/20 07:25:00;;;;;;;3.10;0.80;;;7.40;99.90;;;;;;5049280;28;20345;-67
2023/12/20 07:27:26;;;;;;;2.83;0.85;;;7.40;99.90;;;;;;5051907;28;20111;-67
2023/12/20 07:29:52;;;;;;;1.75;0.77;;;7.40;99.90;;;;;;5060066;28;20052;-66
2023/12/20 07:32:17;;;;;;;5.00;1.25;;;7.40;99.90;;;;;;5059442;28;20053;-67
2023/12/20 07:34:43;;;;;;;2.30;0.60;;;7.50;99.90;;;;;;5058972;28;20052;-66
2023/12/20 07:37:11;;;;;;;25.38;4.45;;;7.50;99.90;;;;;;5053728;28;20530;-67
2023/12/20 07:39:40;;;;;;;7.53;1.55;;;7.60;99.90;;;;;;5058891;28;20052;-67
2023/12/20 07:42:10;;;;;;;12.30;1.00;;;7.60;99.90;;;;;;5061807;28;20409;-67
2023/12/20 07:44:36;;;;;;;;;;;7.60;99.90;;;;;;5043283;28;20101;-67
2023/12/20 07:47:02;;;;;;;3.90;0.80;;;7.60;99.90;;;;;;5060795;28;19924;-67
2023/12/20 07:49:28;;;;;;;10.18;2.30;;;7.60;99.90;;;;;;5058267;28;20074;-67
2023/12/20 07:51:54;;;;;;;11.98;1.70;;;7.60;99.90;;;;;;5030529;28;20044;-67
2023/12/20 07:54:20;;;;;;;9.85;2.20;;;7.70;99.90;;;;;;5059394;28;20048;-67
2023/12/20 07:56:46;;;;;;;19.08;3.00;;;7.70;99.90;;;;;;5058698;28;20051;-66
2023/12/20 07:59:12;;;;;;;20.40;3.55;;;7.80;99.90;;;;;;5059363;28;20045;-67
2023/12/20 08:01:38;;;;;;;7.60;1.70;;;7.80;99.90;;;;;;5056168;28;20088;-67
2023/12/20 08:04:04;;;;;;;4.05;1.10;;;7.80;99.90;;;;;;5042963;28;20059;-66
2023/12/20 08:06:29;;;;;;;25.35;5.28;;;7.80;99.90;;;;;;5036920;28;20079;-68
2023/12/20 08:08:55;;;;;;;28.13;5.75;;;7.80;99.90;;;;;;5049832;28;20067;-66
2023/12/20 08:11:21;;;;;;;7.72;1.40;;;7.80;99.90;;;;;;5060794;28;20044;-66
2023/12/20 08:13:47;;;;;;;13.48;2.47;;;7.70;99.90;;;;;;5052619;28;20050;-67
2023/12/20 08:16:15;;;;;;;24.55;4.57;;;7.70;99.90;;;;;;5048459;28;20049;-67
2023/12/20 08:18:41;;;;;;;12.10;2.22;;;7.70;99.90;;;;;;5055767;28;20057;-67
2023/12/20 08:21:09;;;;;;;21.27;3.10;;;7.80;99.90;;;;;;5052419;28;20650;-66
2023/12/20 08:23:35;;;;;;;7.63;0.95;;;7.80;99.90;;;;;;5041368;28;20895;-67
2023/12/20 08:26:08;;;;;;;23.27;3.85;;;7.80;99.90;;;;;;5048348;28;20147;-67
2023/12/20 08:28:34;;;;;;;18.13;3.45;;;7.80;99.90;;;;;;5082794;28;20592;-67
2023/12/20 08:31:00;;;;;;;20.20;3.97;;;7.80;99.90;;;;;;5056451;28;20036;-67
2023/12/20 08:33:26;;;;;;;5.22;1.27;;;7.90;99.90;;;;;;5048746;28;20534;-67
2023/12/20 08:35:51;;;;;;;19.70;2.75;;;7.90;99.90;;;;;;5091858;28;20119;-67
2023/12/20 08:38:17;;;;;;;25.08;5.65;;;7.90;99.90;;;;;;5047160;28;20164;-67
2023/12/20 08:40:44;;;;;;;14.63;3.83;;;7.90;99.90;;;;;;5046363;28;20072;-67
2023/12/20 08:43:10;;;;;;;10.82;2.15;;;7.50;99.90;;;;;;5056774;28;20131;-67
2023/12/20 08:45:36;;;;;;;11.30;2.40;;;6.90;99.90;;;;;;5051114;28;20053;-67
2023/12/20 08:48:03;;;;;;;12.13;3.58;;;6.70;99.90;;;;;;5050357;28;20120;-67
2023/12/20 08:50:29;;;;;;;11.95;3.45;;;6.50;99.90;;;;;;5056027;28;20056;-66
2023/12/20 08:52:54;;;;;;;13.10;2.67;;;6.40;99.90;;;;;;5052268;28;20413;-67
2023/12/20 08:55:20;;;;;;;10.88;1.95;;;6.30;99.90;;;;;;5056056;28;20037;-67
2023/12/20 08:57:46;;;;;;;14.10;1.52;;;6.20;99.90;;;;;;5088155;28;20800;-66
2023/12/20 09:00:12;;;;;;;16.27;1.88;;;6.20;99.90;;;;;;5048437;28;20033;-66
2023/12/20 09:02:38;;;;;;;4.55;1.08;;;6.10;99.90;;;;;;5057051;28;20064;-67
2023/12/20 09:05:04;;;;;;;16.60;2.40;;;6.00;99.90;;;;;;5057414;28;20060;-67
2023/12/20 09:07:31;;;;;;;15.60;4.30;;;6.00;99.90;;;;;;5059802;28;20410;-67
2023/12/20 09:09:58;;;;;;;15.95;4.90;;;6.00;99.90;;;;;;5061965;28;20946;-67
2023/12/20 09:12:25;;;;;;;18.80;5.10;;;6.00;99.90;;;;;;5060852;28;20052;-66
2023/12/20 09:14:51;;;;;;;11.38;5.03;;;6.00;99.90;;;;;;5063442;28;20032;-67
2023/12/20 09:17:18;;;;;;;12.60;5.80;;;6.00;99.90;;;;;;5057182;28;20083;-67
2023/12/20 09:19:45;;;;;;;11.02;2.40;;;6.00;99.90;;;;;;5057974;28;20685;-67
2023/12/20 09:22:11;;;;;;;14.63;3.40;;;5.90;99.90;;;;;;5052267;28;20045;-67
2023/12/20 09:24:36;;;;;;;8.27;1.60;;;5.90;99.90;;;;;;5042121;28;20059;-67
2023/12/20 09:27:02;;;;;;;6.40;1.35;;;5.80;99.90;;;;;;5059548;28;20040;-66
2023/12/20 09:29:28;;;;;;;12.20;2.72;;;5.90;99.90;;;;;;5091517;28;20041;-67
2023/12/20 09:31:54;;;;;;;16.58;2.08;;;5.90;99.90;;;;;;5058789;28;20056;-67
2023/12/20 09:34:21;;;;;;;13.07;2.35;;;5.90;99.90;;;;;;5057129;28;20644;-67
2023/12/20 09:36:47;;;;;;;11.35;1.60;;;5.90;99.90;;;;;;5093947;28;20041;-67
2023/12/20 09:39:23;;;;;;;14.18;2.25;;;5.90;99.90;;;;;;5086564;28;20386;-67
2023/12/20 09:42:05;;;;;;;14.95;2.10;;;6.00;99.90;;;;;;5060556;28;20116;-67
2023/12/20 09:44:33;;;;;;;12.07;2.10;;;6.00;99.90;;;;;;5059369;28;20056;-66
2023/12/20 09:47:03;;;;;;;12.27;2.10;;;6.00;99.90;;;;;;5091526;28;20521;-66
2023/12/20 09:49:30;;;;;;;13.23;2.13;;;6.10;99.90;;;;;;5074601;28;20044;-66
2023/12/20 09:51:56;;;;;;;8.18;1.75;;;6.10;99.90;;;;;;5049513;28;20394;-66
2023/12/20 09:54:23;;;;;;;13.55;1.80;;;6.10;99.90;;;;;;5057570;28;20113;-67
2023/12/20 09:56:50;;;;;;;10.35;1.83;;;6.10;99.90;;;;;;5058795;28;20557;-67
2023/12/20 09:59:15;;;;;;;12.30;1.58;;;6.10;99.90;;;;;;5062441;28;20049;-67
2023/12/20 10:01:42;;;;;;;13.93;2.78;;;6.20;99.90;;;;;;5073083;28;20041;-66
2023/12/20 10:04:12;;;;;;;17.70;1.60;;;6.30;99.90;;;;;;5058915;28;20406;-66
2023/12/20 10:06:42;;;;;;;9.75;1.85;;;6.30;99.90;;;;;;5090063;28;20086;-67
2023/12/20 10:09:10;;;;;;;11.02;1.80;;;6.40;99.90;;;;;;5054593;28;20052;-67
2023/12/20 10:11:39;;;;;;;11.80;1.83;;;6.50;99.90;;;;;;5054580;28;20429;-67
2023/12/20 10:14:06;;;;;;;18.73;2.75;;;6.50;99.90;;;;;;5046496;28;20045;-67
2023/12/20 10:16:33;;;;;;;17.05;2.60;;;6.50;99.90;;;;;;5056432;28;20036;-67
2023/12/20 10:19:00;;;;;;;9.98;2.03;;;6.50;99.90;;;;;;5058759;28;20045;-67
2023/12/20 10:21:26;;;;;;;25.40;3.08;;;6.50;99.90;;;;;;5060394;28;20541;-67
2023/12/20 10:23:57;;;;;;;17.70;2.70;;;6.60;99.90;;;;;;5061504;28;20131;-67
2023/12/20 10:26:24;;;;;;;14.80;3.70;;;6.70;99.90;;;;;;5061102;28;20052;-67
2023/12/20 10:29:00;;;;;;;20.75;6.20;;;6.80;99.90;;;;;;5061675;28;20049;-67
2023/12/20 10:31:36;;;;;;;25.55;5.90;;;6.90;99.90;;;;;;5058071;28;20076;-66
2023/12/20 10:34:02;;;;;;;21.77;6.28;;;7.00;99.90;;;;;;5042048;28;20047;-67
2023/12/20 10:36:32;;;;;;;21.75;5.45;;;7.00;99.90;;;;;;5058807;28;20048;-67
2023/12/20 10:38:59;;;;;;;27.75;5.43;;;7.10;99.90;;;;;;5061698;28;20048;-67
2023/12/20 10:41:30;;;;;;;25.77;4.85;;;7.20;99.90;;;;;;5056454;28;20044;-67
2023/12/20 10:44:00;;;;;;;23.08;4.35;;;7.20;99.90;;;;;;5060784;28;20106;-67
2023/12/20 10:46:31;;;;;;;22.58;3.90;;;7.20;99.90;;;;;;5042020;28;20067;-67
2023/12/20 10:48:57;;;;;;;18.75;3.90;;;7.20;99.90;;;;;;5083525;28;20044;-67
2023/12/20 10:51:26;;;;;;;26.25;3.63;;;7.20;99.90;;;;;;5061564;28;20056;-67
2023/12/20 10:53:53;;;;;;;22.05;2.78;;;7.30;99.90;;;;;;5056176;28;20045;-67
2023/12/20 10:56:21;;;;;;;30.15;4.30;;;7.30;99.90;;;;;;5060468;28;20048;-67
2023/12/20 10:58:49;;;;;;;25.52;4.35;;;7.30;99.90;;;;;;5056960;28;20044;-67
2023/12/20 11:01:19;;;;;;;21.17;4.97;;;7.40;99.90;;;;;;5053956;28;20063;-68
2023/12/20 11:03:56;;;;;;;28.30;3.70;;;7.40;99.90;;;;;;5087790;28;20044;-67
2023/12/20 11:06:37;;;;;;;28.80;5.20;;;7.50;99.90;;;;;;5087687;28;20053;-67
2023/12/20 11:09:10;;;;;;;19.80;4.25;;;7.60;99.90;;;;;;5067946;28;20041;-67
2023/12/20 11:11:58;;;;;;;23.17;3.72;;;7.60;99.90;;;;;;5059972;28;20052;-67
2023/12/20 11:14:29;;;;;;;27.55;5.18;;;7.60;99.90;;;;;;5059416;28;20052;-68
2023/12/20 11:17:14;;;;;;;30.55;5.13;;;7.70;99.90;;;;;;5060327;28;20045;-67
2023/12/20 11:20:01;;;;;;;29.20;3.72;;;7.70;99.90;;;;;;5051590;28;20544;-67
2023/12/20 11:22:30;;;;;;;25.45;4.43;;;7.70;99.90;;;;;;5049158;28;20052;-67
2023/12/20 11:25:04;;;;;;;26.20;4.53;;;7.80;99.90;;;;;;5060617;28;20047;-69
2023/12/20 11:27:30;;;;;;;29.42;4.60;;;7.70;99.90;;;;;;5043711;28;20048;-67
2023/12/20 11:29:57;;;;;;;27.00;4.70;;;7.70;99.90;;;;;;5053226;28;20067;-67
2023/12/20 11:32:29;;;;;;;22.50;3.40;;;7.70;99.90;;;;;;5054806;28;20727;-67
2023/12/20 11:34:59;;;;;;;22.42;2.83;;;7.80;99.90;;;;;;5053794;28;20068;-67
2023/12/20 11:37:35;;;;;;;21.27;4.32;;;7.80;99.90;;;;;;5057994;28;20150;-67
2023/12/20 11:40:33;;;;;;;20.42;3.88;;;7.90;99.90;;;;;;5028116;28;20533;-67
2023/12/20 11:42:59;;;;;;;22.13;3.97;;;8.00;99.90;;;;;;5047716;28;20673;-67
2023/12/20 11:49:30;;;;;;;24.80;4.10;;;8.00;99.90;;;;;;5072833;22;20057;-67
2023/12/20 11:51:57;;;;;;;28.55;3.83;;;8.00;99.90;;;;;;5022669;28;20045;-67
2023/12/20 11:54:23;;;;;;;20.52;3.30;;;8.00;99.90;;;;;;5040221;28;20152;-68
2023/12/20 11:56:49;;;;;;;16.67;2.78;;;8.10;99.90;;;;;;5005276;28;20068;-67
2023/12/20 11:59:15;;;;;;;20.80;2.88;;;8.10;99.90;;;;;;5021034;28;20049;-68
2023/12/20 12:01:49;;;;;;;28.17;4.35;;;8.10;99.90;;;;;;5022207;28;20041;-68
2023/12/20 12:04:17;;;;;;;20.48;3.90;;;8.10;99.90;;;;;;5021832;28;20523;-68
2023/12/20 12:07:02;;;;;;;9.48;2.17;;;8.00;99.90;;;;;;5032113;28;20091;-67
2023/12/20 12:09:28;;;;;;;17.52;2.70;;;8.00;99.90;;;;;;5022131;28;20049;-67
2023/12/20 12:11:56;;;;;;;3.70;0.65;;;8.00;99.90;;;;;;5004885;28;20071;-67
2023/12/20 12:15:02;;;;;;;9.57;1.60;;;7.90;99.90;;;;;;5032002;28;20045;-67
2023/12/20 12:17:29;;;;;;;25.23;2.95;;;7.90;99.90;;;;;;5036316;22;20492;-68
2023/12/20 12:20:41;;;;;;;5.82;0.77;;;7.80;99.90;;;;;;5037717;28;20080;-67
2023/12/20 12:23:09;;;;;;;1.90;0.40;;;7.80;99.90;;;;;;5014840;28;20038;-67
2023/12/20 12:25:41;;;;;;;6.10;0.98;;;7.70;99.90;;;;;;5037236;28;20057;-67
2023/12/20 12:28:10;;;;;;;11.27;2.13;;;7.70;99.90;;;;;;5027958;28;20045;-67
2023/12/20 12:31:15;;;;;;;6.53;0.77;;;7.70;99.90;;;;;;5029620;28;20533;-67
2023/12/20 12:33:44;;;;;;;6.15;1.23;;;7.60;99.90;;;;;;5001937;28;20595;-67
2023/12/20 12:36:34;;;;;;;20.50;3.42;;;7.60;99.90;;;;;;5014301;28;20072;-67
2023/12/20 12:40:13;;;;;;;5.00;0.85;;;7.50;99.90;;;;;;4991825;28;20037;-67
2023/12/20 12:43:23;;;;;;;2.65;0.13;;;7.50;99.90;;;;;;5013713;22;20054;-67
2023/12/20 12:45:50;;;;;;;2.08;0.50;;;7.60;99.90;;;;;;5003490;28;20050;-67
2023/12/20 12:49:02;;;;;;;1.98;0.52;;;7.50;99.90;;;;;;5098760;22;20057;-67
2023/12/20 12:51:28;;;;;;;5.50;0.95;;;7.50;99.90;;;;;;5029029;28;20486;-67
2023/12/20 12:54:47;;;;;;;26.95;4.68;;;7.40;99.90;;;;;;5021679;28;20037;-68
2023/12/20 12:57:22;;;;;;;5.13;0.95;;;7.50;99.90;;;;;;5008366;28;20136;-67
2023/12/20 12:59:51;;;;;;;10.15;1.50;;;7.40;99.90;;;;;;5019865;28;20059;-67
